West Corners, New York
Current Conditions -  °F | °C
As of 9:53 PM on Friday 19 Dec 2014 (Local Time) from KBGM Reporting Station
Overcast Overcast  
Wind Chill: 15°   Ceiling: 1200
Heat Index: 23°   Visibility: 10mi
Dew Point: 19°   Wind: 7mph
Humidity: 85%   Direction: 320°NW
Pressure: 30.14"   Gusts: NA
Location:  42.1332°N, 76.0798°W
Report Text: KBGM 200253Z 32006KT 10SM OVC012 M05/M07 A3014 RMK AO2 SLP231 T10501072 53004
Loading
Personal Weather Stations






























Interactive Weather Map New forecast layout! Learn more

10-Day Weather Forecast

Advertisements
Track Severe Weather on mobile